createdAt,value
2022-07-30T00:00:24.624Z,101063.03
2022-07-30T00:02:53.172Z,101061.53
2022-07-30T00:05:20.688Z,101064.03
2022-07-30T00:07:48.211Z,101061.28
2022-07-30T00:10:15.547Z,101064.81
2022-07-30T00:12:42.823Z,101069.69
2022-07-30T00:15:13.703Z,101057.97
2022-07-30T00:17:40.930Z,101056.91
2022-07-30T00:20:08.513Z,101063.00
2022-07-30T00:22:38.283Z,101058.25
2022-07-30T00:25:06.786Z,101054.44
2022-07-30T00:27:35.184Z,101020.06
2022-07-30T00:30:04.176Z,101055.97
2022-07-30T00:32:31.607Z,101059.41
2022-07-30T00:34:58.733Z,101055.00
2022-07-30T00:37:25.926Z,101057.97
2022-07-30T00:39:53.246Z,101049.59
2022-07-30T00:42:25.633Z,101043.38
2022-07-30T00:44:54.721Z,101060.75
2022-07-30T00:47:21.817Z,101052.03
2022-07-30T00:49:48.806Z,101057.97
2022-07-30T00:52:15.829Z,101062.22
2022-07-30T00:54:43.028Z,101063.53
2022-07-30T00:57:10.165Z,101055.00
2022-07-30T00:59:37.873Z,101054.97
2022-07-30T01:02:05.481Z,101057.31
2022-07-30T01:04:34.513Z,101048.69
2022-07-30T01:07:02.150Z,101051.31
2022-07-30T01:09:30.208Z,101058.91
2022-07-30T01:11:58.214Z,101058.25
2022-07-30T01:14:25.490Z,101059.38
2022-07-30T01:16:52.874Z,101054.25
2022-07-30T01:19:45.577Z,101065.34
2022-07-30T01:22:31.166Z,101062.47
2022-07-30T01:25:05.655Z,101061.25
2022-07-30T01:27:45.896Z,101048.31
2022-07-30T01:30:15.584Z,101052.34
2022-07-30T01:32:51.444Z,101061.56
2022-07-30T01:35:24.382Z,101063.31
2022-07-30T01:37:56.707Z,101064.88
2022-07-30T01:40:29.414Z,101068.16
2022-07-30T01:42:58.846Z,101056.97
2022-07-30T01:45:28.860Z,101066.25
2022-07-30T01:47:58.898Z,101070.88
2022-07-30T01:50:28.282Z,101065.00
2022-07-30T01:52:57.935Z,101062.28
2022-07-30T01:55:30.489Z,101071.75
2022-07-30T01:57:59.099Z,101077.34
2022-07-30T02:00:28.505Z,101074.38
2022-07-30T02:02:55.518Z,101066.19
2022-07-30T02:05:23.537Z,101067.25
2022-07-30T02:07:58.909Z,101072.94
2022-07-30T02:10:33.778Z,101079.94
2022-07-30T02:13:04.669Z,101077.22
2022-07-30T02:15:38.704Z,101080.53
2022-07-30T02:18:23.798Z,101077.53
2022-07-30T02:21:00.485Z,101083.13
2022-07-30T02:23:31.425Z,101079.19
2022-07-30T02:26:00.708Z,101074.16
2022-07-30T02:28:39.378Z,101080.94
2022-07-30T02:31:16.945Z,101068.78
2022-07-30T02:33:54.942Z,101076.75
2022-07-30T02:36:24.052Z,101074.47
2022-07-30T02:38:52.231Z,101081.00
2022-07-30T02:41:25.086Z,101080.84
2022-07-30T02:43:53.373Z,101091.94
2022-07-30T02:46:25.855Z,101081.44
2022-07-30T02:48:54.692Z,101089.97
2022-07-30T02:51:28.567Z,101090.69
2022-07-30T02:54:01.517Z,101091.53
2022-07-30T02:56:31.909Z,101096.19
2022-07-30T02:59:01.919Z,101092.81
2022-07-30T03:01:38.484Z,101091.28
2022-07-30T03:04:06.778Z,101101.44
2022-07-30T03:06:35.620Z,101100.81
2022-07-30T03:09:04.393Z,101097.63
2022-07-30T03:11:34.016Z,101105.59
2022-07-30T03:14:05.789Z,101102.25
2022-07-30T03:16:38.669Z,101102.25
2022-07-30T03:19:10.122Z,101096.94
2022-07-30T03:21:44.769Z,101094.00
2022-07-30T03:24:15.233Z,101097.53
2022-07-30T03:26:44.046Z,101096.78
2022-07-30T03:29:13.681Z,101106.00
2022-07-30T03:31:43.501Z,101108.56
2022-07-30T03:34:13.152Z,101112.16
2022-07-30T03:36:41.602Z,101115.31
2022-07-30T03:39:09.593Z,101118.06
2022-07-30T03:41:38.582Z,101126.19
2022-07-30T03:44:07.232Z,101122.34
2022-07-30T03:46:37.055Z,101118.09
2022-07-30T03:49:05.965Z,101117.31
2022-07-30T03:51:36.046Z,101125.44
2022-07-30T03:54:05.581Z,101124.34
2022-07-30T03:56:33.620Z,101129.03
2022-07-30T03:59:01.852Z,101122.19
2022-07-30T04:01:32.249Z,101132.75
2022-07-30T04:04:10.110Z,101139.88
2022-07-30T04:06:40.969Z,101137.13
2022-07-30T04:09:12.795Z,101139.72
2022-07-30T04:11:50.185Z,101143.50
2022-07-30T04:14:17.593Z,101143.81
2022-07-30T04:16:51.829Z,101132.66
2022-07-30T04:19:28.345Z,101143.81
2022-07-30T04:21:58.457Z,101153.38
2022-07-30T04:24:31.632Z,101151.94
2022-07-30T04:27:00.567Z,101156.34
2022-07-30T04:29:28.527Z,101151.34
2022-07-30T04:31:56.924Z,101155.91
2022-07-30T04:34:24.113Z,101165.59
2022-07-30T04:36:51.346Z,101170.41
2022-07-30T04:39:18.496Z,101176.50
2022-07-30T04:41:48.787Z,101181.09
2022-07-30T04:44:18.900Z,101176.69
2022-07-30T04:46:47.150Z,101179.81
2022-07-30T04:49:21.625Z,101184.44
2022-07-30T04:51:49.643Z,101166.78
2022-07-30T04:54:24.742Z,101181.88
2022-07-30T04:56:54.737Z,101183.50
2022-07-30T04:59:24.880Z,101191.66
2022-07-30T05:01:53.654Z,101196.06
2022-07-30T05:04:22.478Z,101190.13
2022-07-30T05:06:49.961Z,101200.19
2022-07-30T05:09:17.746Z,101172.38
2022-07-30T05:11:53.037Z,101199.13
2022-07-30T05:14:21.367Z,101197.69
2022-07-30T05:16:48.893Z,101192.50
2022-07-30T05:19:17.109Z,101198.75
2022-07-30T05:21:44.336Z,101206.56
2022-07-30T05:24:12.035Z,101199.38
2022-07-30T05:26:39.696Z,101202.91
2022-07-30T05:29:08.255Z,101206.78
2022-07-30T05:31:38.171Z,101207.66
2022-07-30T05:34:05.743Z,101208.00
2022-07-30T05:36:34.097Z,101210.28
2022-07-30T05:39:01.759Z,101204.66
2022-07-30T05:41:31.900Z,101206.28
2022-07-30T05:44:01.907Z,101203.66
2022-07-30T05:46:31.148Z,101216.28
2022-07-30T05:49:00.510Z,101214.84
2022-07-30T05:51:29.273Z,101214.97
2022-07-30T05:53:57.514Z,101206.09
2022-07-30T05:56:24.739Z,101211.47
2022-07-30T05:58:51.884Z,101217.00
2022-07-30T06:01:20.826Z,101216.19
2022-07-30T06:03:53.639Z,101213.66
2022-07-30T06:06:26.546Z,101219.16
2022-07-30T06:08:53.598Z,101217.84
2022-07-30T06:11:20.912Z,101220.13
2022-07-30T06:13:48.256Z,101217.72
2022-07-30T06:16:22.456Z,101229.88
2022-07-30T06:18:49.613Z,101229.44
2022-07-30T06:21:16.821Z,101230.06
2022-07-30T06:23:44.192Z,101225.16
2022-07-30T06:26:16.543Z,101228.44
2022-07-30T06:28:43.703Z,101237.50
2022-07-30T06:31:10.931Z,101233.53
2022-07-30T06:33:38.216Z,101226.41
2022-07-30T06:36:05.571Z,101243.84
2022-07-30T06:38:33.232Z,101243.16
2022-07-30T06:41:02.637Z,101245.59
2022-07-30T06:43:31.845Z,101240.56
2022-07-30T06:45:59.318Z,101243.91
2022-07-30T06:48:26.792Z,101250.63
2022-07-30T06:50:54.018Z,101253.50
2022-07-30T06:53:21.207Z,101253.03
2022-07-30T06:55:50.432Z,101247.09
2022-07-30T06:58:18.177Z,101249.53
2022-07-30T07:00:53.076Z,101254.09
2022-07-30T07:03:20.405Z,101259.97
2022-07-30T07:05:52.925Z,101258.53
2022-07-30T07:08:20.238Z,101254.47
2022-07-30T07:10:52.474Z,101255.31
2022-07-30T07:13:20.692Z,101255.09
2022-07-30T07:15:53.738Z,101256.22
2022-07-30T07:18:20.992Z,101269.13
2022-07-30T07:20:54.625Z,101241.78
2022-07-30T07:23:21.869Z,101266.63
2022-07-30T07:25:48.990Z,101260.34
2022-07-30T07:28:16.288Z,101261.03
2022-07-30T07:30:44.377Z,101264.00
2022-07-30T07:33:15.606Z,101261.41
2022-07-30T07:35:49.790Z,101267.72
2022-07-30T07:38:18.317Z,101254.41
2022-07-30T07:40:47.065Z,101272.00
2022-07-30T07:43:21.124Z,101267.25
2022-07-30T07:45:48.513Z,101268.94
2022-07-30T07:48:18.696Z,101274.97
2022-07-30T07:50:47.372Z,101273.66
2022-07-30T07:53:14.760Z,101282.50
2022-07-30T07:55:42.212Z,101277.59
2022-07-30T07:58:13.484Z,101280.47
2022-07-30T08:00:44.965Z,101273.59
2022-07-30T08:03:12.118Z,101268.38
2022-07-30T08:06:01.052Z,101274.47
2022-07-30T08:08:26.605Z,101274.63
2022-07-30T08:11:04.422Z,101275.81
2022-07-30T08:13:49.177Z,101279.81
2022-07-30T08:16:20.333Z,101274.06
2022-07-30T08:18:47.613Z,101267.53
2022-07-30T08:21:21.176Z,101270.53
2022-07-30T08:23:48.356Z,101278.34
2022-07-30T08:26:17.666Z,101283.41
2022-07-30T08:28:45.708Z,101275.44
2022-07-30T08:31:13.082Z,101281.88
2022-07-30T08:33:40.229Z,101274.81
2022-07-30T08:36:09.778Z,101272.81
2022-07-30T08:38:43.137Z,101269.78
2022-07-30T08:41:12.873Z,101273.09
2022-07-30T08:43:40.540Z,101277.19
2022-07-30T08:46:16.040Z,101275.78
2022-07-30T08:48:43.249Z,101283.41
2022-07-30T08:51:10.783Z,101275.78
2022-07-30T08:53:38.318Z,101283.19
2022-07-30T08:56:07.489Z,101274.94
2022-07-30T08:58:41.755Z,101289.06
2022-07-30T09:01:09.571Z,101288.06
2022-07-30T09:03:44.089Z,101277.94
2022-07-30T09:06:12.283Z,101286.31
2022-07-30T09:08:39.556Z,101282.00
2022-07-30T09:11:06.627Z,101285.31
2022-07-30T09:13:37.615Z,101291.69
2022-07-30T09:16:24.522Z,101293.34
2022-07-30T09:18:53.597Z,101285.22
2022-07-30T09:21:24.021Z,101287.34
2022-07-30T09:24:03.128Z,101287.66
2022-07-30T09:26:32.836Z,101297.44
2022-07-30T09:29:17.306Z,101303.06
2022-07-30T09:32:04.169Z,101289.31
2022-07-30T09:34:39.860Z,101303.69
2022-07-30T09:37:10.397Z,101297.88
2022-07-30T09:39:42.022Z,101289.47
2022-07-30T09:42:20.058Z,101288.56
2022-07-30T09:44:48.396Z,101281.28
2022-07-30T09:47:38.820Z,101290.16
2022-07-30T09:50:11.309Z,101288.31
2022-07-30T09:52:49.095Z,101282.44
2022-07-30T09:55:30.795Z,101284.72
2022-07-30T09:58:00.272Z,101285.13
2022-07-30T10:00:30.804Z,101283.59
2022-07-30T10:03:22.023Z,101293.38
2022-07-30T10:06:01.303Z,101299.56
2022-07-30T10:08:39.253Z,101284.94
2022-07-30T10:11:10.590Z,101292.19
2022-07-30T10:13:48.135Z,101276.75
2022-07-30T10:16:16.433Z,101283.72
2022-07-30T10:18:43.594Z,101279.75
2022-07-30T10:21:12.498Z,101282.88
2022-07-30T10:23:52.545Z,101285.34
2022-07-30T10:26:20.845Z,101245.25
2022-07-30T10:28:53.411Z,101283.97
2022-07-30T10:31:48.639Z,101275.78
2022-07-30T10:34:23.965Z,101276.19
2022-07-30T10:36:58.408Z,101274.28
2022-07-30T10:39:33.035Z,101280.63
2022-07-30T10:42:17.144Z,101271.97
2022-07-30T10:45:02.923Z,101270.63
2022-07-30T10:47:44.813Z,101268.81
2022-07-30T10:50:22.190Z,101282.16
2022-07-30T10:52:58.120Z,101276.50
2022-07-30T10:55:37.344Z,101269.16
2022-07-30T10:58:14.245Z,101269.16
2022-07-30T11:03:20.084Z,101268.69
2022-07-30T11:06:15.729Z,101256.56
2022-07-30T11:08:45.576Z,101247.13
2022-07-30T11:12:00.118Z,101252.16
2022-07-30T11:14:08.595Z,101249.88
2022-07-30T11:16:37.129Z,101247.97
2022-07-30T11:19:55.676Z,101246.38
2022-07-30T11:22:31.716Z,101249.13
2022-07-30T11:25:00.528Z,101255.44
2022-07-30T11:27:36.286Z,101255.41
2022-07-30T11:30:29.614Z,101256.84
2022-07-30T11:33:04.405Z,101257.00
2022-07-30T11:35:35.243Z,101258.84
2022-07-30T11:38:19.603Z,101257.00
2022-07-30T11:40:54.835Z,101251.69
2022-07-30T11:43:36.172Z,101262.81
2022-07-30T11:46:29.044Z,101257.94
2022-07-30T11:48:59.521Z,101258.06
2022-07-30T11:51:26.752Z,101243.69
2022-07-30T11:54:04.827Z,101245.78
2022-07-30T11:56:36.883Z,101241.22
2022-07-30T11:59:11.846Z,101248.97
2022-07-30T12:01:39.053Z,101251.47
2022-07-30T12:04:08.829Z,101246.28
2022-07-30T12:06:47.014Z,101262.13
2022-07-30T12:09:23.532Z,101263.28
2022-07-30T12:11:56.100Z,101259.81
2022-07-30T12:14:23.327Z,101258.81
2022-07-30T12:17:00.577Z,101258.31
2022-07-30T12:19:27.994Z,101247.88
2022-07-30T12:21:59.912Z,101239.47
2022-07-30T12:24:27.112Z,101243.94
2022-07-30T12:27:06.896Z,101244.34
2022-07-30T12:29:35.536Z,101246.53
2022-07-30T12:32:03.089Z,101235.69
2022-07-30T12:34:34.605Z,101240.19
2022-07-30T12:37:10.034Z,101237.50
2022-07-30T12:39:37.723Z,101244.25
2022-07-30T12:42:06.468Z,101245.19
2022-07-30T12:44:39.254Z,101241.56
2022-07-30T12:47:20.160Z,101240.75
2022-07-30T12:49:49.879Z,101236.28
2022-07-30T12:52:28.187Z,101233.84
2022-07-30T12:55:04.109Z,101244.59
2022-07-30T12:57:57.468Z,101239.47
2022-07-30T13:00:52.653Z,101234.81
2022-07-30T13:03:29.306Z,101220.56
2022-07-30T13:05:57.150Z,101231.00
2022-07-30T13:08:52.538Z,101238.28
2022-07-30T13:11:38.456Z,101230.84
2022-07-30T13:14:06.601Z,101228.69
2022-07-30T13:16:35.782Z,101221.56
2022-07-30T13:19:04.144Z,101223.44
2022-07-30T13:21:31.356Z,101220.22
2022-07-30T13:24:03.301Z,101222.72
2022-07-30T13:26:30.494Z,101230.66
2022-07-30T13:29:02.090Z,101225.03
2022-07-30T13:31:42.251Z,101225.63
2022-07-30T13:34:12.043Z,101235.66
2022-07-30T13:36:44.722Z,101234.09
2022-07-30T13:39:12.451Z,101226.66
2022-07-30T13:41:49.506Z,101226.16
2022-07-30T13:44:26.126Z,101224.84
2022-07-30T13:46:53.380Z,101227.34
2022-07-30T13:49:25.303Z,101220.97
2022-07-30T13:51:57.159Z,101222.38
2022-07-30T13:54:25.658Z,101220.16
2022-07-30T13:56:53.354Z,101223.78
2022-07-30T13:59:20.492Z,101213.78
2022-07-30T14:01:47.609Z,101230.97
2022-07-30T14:04:14.846Z,101224.31
2022-07-30T14:06:42.058Z,101209.31
2022-07-30T14:09:09.298Z,101206.56
2022-07-30T14:11:36.359Z,101214.03
2022-07-30T14:14:03.631Z,101202.69
2022-07-30T14:16:46.197Z,101213.22
2022-07-30T14:19:24.254Z,101202.97
2022-07-30T14:21:53.630Z,101202.97
2022-07-30T14:24:22.872Z,101197.16
2022-07-30T14:26:55.828Z,101199.91
2022-07-30T14:29:26.001Z,101191.03
2022-07-30T14:31:53.654Z,101189.09
2022-07-30T14:34:20.976Z,101199.59
2022-07-30T14:36:48.205Z,101196.78
2022-07-30T14:39:15.449Z,101186.41
2022-07-30T14:41:43.121Z,101184.34
2022-07-30T14:44:12.257Z,101190.25
2022-07-30T14:46:52.026Z,101193.66
2022-07-30T14:49:29.466Z,101195.31
2022-07-30T14:51:56.993Z,101198.13
2022-07-30T14:54:24.465Z,101197.50
2022-07-30T14:56:59.713Z,101199.63
2022-07-30T14:59:28.278Z,101193.44
2022-07-30T15:01:56.931Z,101200.69
2022-07-30T15:04:24.098Z,101194.34
2022-07-30T15:06:55.721Z,101193.38
2022-07-30T15:09:22.873Z,101191.44
2022-07-30T15:12:08.515Z,101196.88
2022-07-30T15:14:38.360Z,101183.34
2022-07-30T15:17:07.719Z,101193.41
2022-07-30T15:19:34.972Z,101186.06
2022-07-30T15:22:07.150Z,101189.28
2022-07-30T15:24:34.659Z,101193.63
2022-07-30T15:27:07.071Z,101186.06
2022-07-30T15:29:34.314Z,101193.84
2022-07-30T15:32:07.046Z,101194.91
2022-07-30T15:34:34.872Z,101187.63
2022-07-30T15:37:09.950Z,101184.53
2022-07-30T15:39:37.221Z,101181.16
2022-07-30T15:42:14.297Z,101181.59
2022-07-30T15:44:48.396Z,101183.94
2022-07-30T15:47:34.556Z,101181.91
2022-07-30T15:50:11.139Z,101187.94
2022-07-30T15:52:38.614Z,101189.47
2022-07-30T15:55:06.986Z,101185.44
2022-07-30T15:57:34.372Z,101184.59
2022-07-30T16:00:07.513Z,101186.75
2022-07-30T16:02:37.237Z,101184.88
2022-07-30T16:05:04.711Z,101182.47
2022-07-30T16:07:32.077Z,101179.53
2022-07-30T16:09:59.250Z,101183.28
2022-07-30T16:12:26.594Z,101182.81
2022-07-30T16:15:02.688Z,64766.84
2022-07-30T16:17:30.846Z,64766.84
2022-07-30T16:20:16.420Z,64766.84
2022-07-30T16:22:47.458Z,101175.34
2022-07-30T16:25:14.772Z,101179.91
2022-07-30T16:27:42.310Z,101171.03
2022-07-30T16:30:13.957Z,101178.22
2022-07-30T16:32:41.162Z,101163.00
2022-07-30T16:35:14.453Z,101171.34
2022-07-30T16:38:02.745Z,101170.78
2022-07-30T16:40:31.651Z,101167.19
2022-07-30T16:43:19.930Z,101169.38
2022-07-30T16:45:52.225Z,101170.25
2022-07-30T16:48:19.446Z,101166.09
2022-07-30T16:50:56.449Z,101167.75
2022-07-30T16:53:23.830Z,101171.31
2022-07-30T16:55:51.025Z,101167.72
2022-07-30T16:58:18.367Z,101157.75
2022-07-30T17:00:53.983Z,101158.28
2022-07-30T17:03:21.205Z,101153.88
2022-07-30T17:05:48.425Z,101159.97
2022-07-30T17:08:15.552Z,101162.22
2022-07-30T17:10:46.011Z,101157.22
2022-07-30T17:13:15.291Z,101143.38
2022-07-30T17:16:00.603Z,101150.56
2022-07-30T17:18:27.838Z,101160.00
2022-07-30T17:20:58.265Z,101153.88
2022-07-30T17:23:25.467Z,101161.94
2022-07-30T17:25:52.597Z,101159.16
2022-07-30T17:28:26.909Z,101159.16
2022-07-30T17:31:12.577Z,101164.13
2022-07-30T17:33:46.446Z,101164.94
2022-07-30T17:36:22.134Z,101165.19
2022-07-30T17:38:50.711Z,101163.81
2022-07-30T17:41:17.890Z,101168.50
2022-07-30T17:43:45.050Z,101170.16
2022-07-30T17:46:20.386Z,101167.66
2022-07-30T17:48:57.522Z,101169.59
2022-07-30T17:51:42.910Z,101174.28
2022-07-30T17:54:10.304Z,101172.06
2022-07-30T17:56:56.013Z,101173.16
2022-07-30T17:59:28.280Z,101176.72
2022-07-30T18:02:14.097Z,101171.19
2022-07-30T18:04:41.290Z,101183.59
2022-07-30T18:07:08.498Z,101178.34
2022-07-30T18:09:39.937Z,101189.09
2022-07-30T18:12:08.203Z,101187.16
2022-07-30T18:14:38.475Z,101182.41
2022-07-30T18:17:24.266Z,101184.28
2022-07-30T18:19:51.445Z,101188.97
2022-07-30T18:22:29.133Z,101180.91
2022-07-30T18:25:00.029Z,101191.13
2022-07-30T18:27:37.421Z,101195.03
2022-07-30T18:30:05.017Z,101152.22
2022-07-30T18:32:32.206Z,101198.88
2022-07-30T18:34:59.380Z,101195.56
2022-07-30T18:37:44.950Z,101193.84
2022-07-30T18:40:24.087Z,101194.38
2022-07-30T18:43:09.601Z,101198.78
2022-07-30T18:45:37.320Z,101195.94
2022-07-30T18:48:04.998Z,101206.41
2022-07-30T18:50:32.821Z,101208.88
2022-07-30T18:53:00.145Z,101210.19
2022-07-30T18:55:34.246Z,101211.25
2022-07-30T18:58:01.552Z,101209.00
2022-07-30T19:00:35.266Z,101208.47
2022-07-30T19:03:03.812Z,101215.03
2022-07-30T19:05:31.193Z,101211.94
2022-07-30T19:07:59.140Z,101210.81
2022-07-30T19:10:27.346Z,101206.91
2022-07-30T19:13:13.010Z,101209.44
2022-07-30T19:15:48.593Z,101203.31
2022-07-30T19:18:16.137Z,101207.78
2022-07-30T19:20:44.042Z,101206.59
2022-07-30T19:23:20.457Z,101208.81
2022-07-30T19:25:47.826Z,101201.63
2022-07-30T19:28:21.750Z,101205.47
2022-07-30T19:30:52.046Z,101206.00
2022-07-30T19:33:19.329Z,101209.28
2022-07-30T19:35:55.114Z,101207.84
2022-07-30T19:38:24.066Z,101203.34
2022-07-30T19:40:52.067Z,101213.06
2022-07-30T19:43:26.635Z,101214.13
2022-07-30T19:45:58.526Z,101212.97
2022-07-30T19:48:29.485Z,101214.00
2022-07-30T19:51:00.501Z,101220.56
2022-07-30T19:53:31.235Z,101216.16
2022-07-30T19:56:04.374Z,101218.31
2022-07-30T19:58:37.693Z,101219.94
2022-07-30T20:01:08.330Z,101226.81
2022-07-30T20:03:37.089Z,101232.59
2022-07-30T20:06:14.498Z,101241.41
2022-07-30T20:09:00.718Z,101236.44
2022-07-30T20:11:43.604Z,101225.66
2022-07-30T20:14:10.827Z,101231.38
2022-07-30T20:16:38.193Z,101218.88
2022-07-30T20:19:05.498Z,101231.00
2022-07-30T20:21:56.644Z,101231.78
2022-07-30T20:24:21.116Z,101228.44
2022-07-30T20:26:48.312Z,101232.88
2022-07-30T20:29:19.108Z,101233.94
2022-07-30T20:31:46.916Z,101235.06
2022-07-30T20:34:20.579Z,101235.00
2022-07-30T20:36:56.364Z,101233.31
2022-07-30T20:39:25.347Z,101247.38
2022-07-30T20:42:07.523Z,101240.78
2022-07-30T20:44:49.541Z,101241.84
2022-07-30T20:47:38.227Z,101239.59
2022-07-30T20:50:11.257Z,101240.09
2022-07-30T20:52:46.572Z,101234.00
2022-07-30T20:55:16.624Z,101243.13
2022-07-30T20:58:01.921Z,101238.09
2022-07-30T21:00:36.607Z,101241.69
2022-07-30T21:03:13.617Z,101243.38
2022-07-30T21:05:52.392Z,101241.94
2022-07-30T21:08:20.500Z,101247.75
2022-07-30T21:10:47.686Z,101244.06
2022-07-30T21:13:15.222Z,101244.56
2022-07-30T21:15:45.306Z,101234.47
2022-07-30T21:18:28.602Z,101228.06
2022-07-30T21:20:57.027Z,101231.06
2022-07-30T21:23:25.007Z,101225.75
2022-07-30T21:26:02.979Z,101235.28
2022-07-30T21:28:36.287Z,101226.41
2022-07-30T21:31:08.745Z,101234.94
2022-07-30T21:33:37.212Z,101226.94
2022-07-30T21:36:10.269Z,101227.97
2022-07-30T21:38:42.381Z,101228.78
2022-07-30T21:41:13.816Z,101223.75
2022-07-30T21:43:45.898Z,101225.13
2022-07-30T21:46:26.881Z,101224.72
2022-07-30T21:48:58.373Z,101218.31
2022-07-30T21:51:26.576Z,101222.09
2022-07-30T21:54:07.288Z,101214.34
2022-07-30T21:56:34.592Z,101214.41
2022-07-30T21:59:16.538Z,101217.34
2022-07-30T22:01:49.818Z,101213.38
2022-07-30T22:04:17.264Z,101203.72
2022-07-30T22:06:44.779Z,101210.81
2022-07-30T22:09:18.948Z,101202.56
2022-07-30T22:12:09.874Z,101213.38
2022-07-30T22:14:54.086Z,101209.22
2022-07-30T22:17:23.797Z,101211.91
2022-07-30T22:20:11.351Z,101209.66
2022-07-30T22:22:39.923Z,101217.31
2022-07-30T22:25:09.778Z,101214.31
2022-07-30T22:27:40.360Z,101212.41
2022-07-30T22:30:33.608Z,101208.56
2022-07-30T22:33:16.364Z,101210.72
2022-07-30T22:35:46.891Z,101205.50
2022-07-30T22:38:34.893Z,101200.13
2022-07-30T22:41:02.125Z,101202.28
2022-07-30T22:43:40.997Z,101200.38
2022-07-30T22:46:14.879Z,101203.19
2022-07-30T22:48:59.413Z,101195.94
2022-07-30T22:52:03.777Z,101197.38
2022-07-30T22:54:21.999Z,101199.72
2022-07-30T22:56:50.352Z,101200.19
2022-07-30T22:59:17.460Z,101205.09
2022-07-30T23:02:27.881Z,101207.63
2022-07-30T23:04:56.386Z,101205.97
2022-07-30T23:07:23.689Z,101201.47
2022-07-30T23:10:17.323Z,101202.53
2022-07-30T23:13:04.104Z,101206.13
2022-07-30T23:15:31.505Z,101207.63
2022-07-30T23:17:58.625Z,101208.09
2022-07-30T23:20:27.441Z,101210.72
2022-07-30T23:22:54.953Z,101207.72
2022-07-30T23:25:24.851Z,101203.13
2022-07-30T23:27:52.027Z,101197.03
2022-07-30T23:30:30.040Z,101199.47
2022-07-30T23:33:19.665Z,101194.44
2022-07-30T23:35:46.744Z,101198.00
2022-07-30T23:38:15.197Z,101194.69
2022-07-30T23:40:42.309Z,101187.50
2022-07-30T23:43:09.392Z,101186.44
2022-07-30T23:45:46.361Z,101190.84
2022-07-30T23:48:15.189Z,101180.94
2022-07-30T23:50:48.602Z,101188.09
2022-07-30T23:53:15.909Z,101186.28
2022-07-30T23:55:48.894Z,101185.47
2022-07-30T23:58:16.073Z,101187.28
